Time;durP1;ratioP1;P1;durP2;ratioP2;P2;SDS_P1;SDS_P2;PMS_P1;PMS_P2;Temp;Humidity;BMP_temperature;BMP_pressure;BME280_temperature;BME280_humidity;BME280_pressure;Samples;Min_cycle;Max_cycle;Signal;HPM_P1;HPM_P2
2021/12/23 00:01:07;;;;;;;5.65;3.65;;;-4.30;99.90;;;;;;5053797;28;20553;-58
2021/12/23 00:03:36;;;;;;;5.00;2.85;;;-4.30;99.90;;;;;;5066493;28;20305;-58
2021/12/23 00:06:03;;;;;;;2.53;1.83;;;-4.30;99.90;;;;;;5055108;28;20730;-58
2021/12/23 00:08:30;;;;;;;2.90;2.10;;;-4.40;99.90;;;;;;5064590;28;20540;-57
2021/12/23 00:10:57;;;;;;;7.83;4.50;;;-4.50;99.90;;;;;;5062910;28;21128;-57
2021/12/23 00:13:24;;;;;;;7.45;3.90;;;-4.60;99.90;;;;;;5068034;28;20521;-57
2021/12/23 00:16:03;;;;;;;8.55;3.45;;;-4.50;99.90;;;;;;5065182;28;20290;-57
2021/12/23 00:18:43;;;;;;;9.23;4.33;;;-4.50;99.90;;;;;;5061168;28;20245;-58
2021/12/23 00:24:00;;;;;;;9.63;4.70;;;-4.50;99.90;;;;;;5063026;28;20442;-57
2021/12/23 00:26:28;;;;;;;7.03;3.10;;;-4.40;99.90;;;;;;5060518;28;20537;-57
2021/12/23 00:28:55;;;;;;;8.23;3.20;;;-4.40;99.90;;;;;;5064983;28;20516;-57
2021/12/23 00:31:22;;;;;;;6.27;4.07;;;-4.40;99.90;;;;;;5071613;28;20658;-58
2021/12/23 00:33:49;;;;;;;9.53;5.43;;;-4.40;99.90;;;;;;5069525;28;20476;-59
2021/12/23 00:36:18;;;;;;;13.63;6.17;;;-4.50;99.90;;;;;;5056725;28;20476;-58
2021/12/23 00:38:50;;;;;;;19.40;7.57;;;-5.00;99.90;;;;;;5068644;28;20508;-58
2021/12/23 00:41:19;;;;;;;11.77;6.37;;;-5.00;99.90;;;;;;5063904;28;20470;-57
2021/12/23 00:43:47;;;;;;;10.93;5.10;;;-4.90;99.90;;;;;;5061768;28;20871;-58
2021/12/23 00:46:14;;;;;;;9.97;4.30;;;-4.80;99.90;;;;;;5063503;28;20861;-57
2021/12/23 00:48:41;;;;;;;5.47;3.80;;;-4.70;99.90;;;;;;5056980;28;21004;-58
2021/12/23 00:51:09;;;;;;;4.93;3.15;;;-4.70;99.90;;;;;;5066555;28;20456;-58
2021/12/23 00:53:38;;;;;;;4.70;2.33;;;-4.60;99.90;;;;;;5070511;28;20233;-58
2021/12/23 00:56:05;;;;;;;1.33;1.23;;;-4.60;99.90;;;;;;5067403;28;20448;-58
2021/12/23 00:58:33;;;;;;;3.78;2.22;;;-4.70;99.90;;;;;;5068079;28;20563;-58
2021/12/23 01:01:00;;;;;;;1.88;1.70;;;-4.70;99.90;;;;;;5060388;28;20744;-58
2021/12/23 01:03:28;;;;;;;2.67;2.13;;;-4.70;99.90;;;;;;5113518;22;20239;-47
2021/12/23 01:05:55;;;;;;;5.70;3.20;;;-4.70;99.90;;;;;;5066442;28;20306;-50
2021/12/23 01:08:22;;;;;;;4.22;3.00;;;-4.70;99.90;;;;;;5067402;28;20502;-51
2021/12/23 01:10:55;;;;;;;16.45;3.53;;;-5.00;99.90;;;;;;5070090;28;20232;-51
2021/12/23 01:13:26;;;;;;;7.68;4.75;;;-5.10;99.90;;;;;;5051504;28;20221;-50
2021/12/23 01:16:03;;;;;;;7.55;3.65;;;-5.30;99.90;;;;;;5046474;28;20492;-49
2021/12/23 01:18:36;;;;;;;6.70;3.72;;;-5.20;99.90;;;;;;5049450;28;20225;-50
2021/12/23 01:21:15;;;;;;;2.17;1.42;;;-5.00;99.90;;;;;;5053037;28;20207;-50
2021/12/23 01:23:43;;;;;;;3.85;2.35;;;-4.90;99.90;;;;;;5049597;28;20235;-53
2021/12/23 01:26:17;;;;;;;4.20;3.03;;;-4.90;99.90;;;;;;5049811;28;20292;-50
2021/12/23 01:28:44;;;;;;;3.17;2.70;;;-5.10;99.90;;;;;;5048702;28;20788;-55
2021/12/23 01:31:11;;;;;;;2.20;1.92;;;-5.10;99.90;;;;;;5050742;28;20488;-51
2021/12/23 01:33:38;;;;;;;4.75;1.98;;;-5.10;99.90;;;;;;5048216;28;20706;-52
2021/12/23 01:36:06;;;;;;;4.90;2.40;;;-4.90;99.90;;;;;;5050225;28;20300;-55
2021/12/23 01:38:32;;;;;;;3.33;1.70;;;-4.90;99.90;;;;;;5049845;28;20926;-54
2021/12/23 01:41:00;;;;;;;3.00;1.53;;;-4.90;99.90;;;;;;5049730;28;20241;-52
2021/12/23 01:43:28;;;;;;;2.83;1.77;;;-4.90;99.90;;;;;;5049632;28;20564;-52
2021/12/23 01:45:55;;;;;;;5.75;2.55;;;-4.80;99.90;;;;;;5049600;28;20536;-55
2021/12/23 01:48:22;;;;;;;3.88;2.25;;;-4.80;99.90;;;;;;5047239;28;20236;-52
2021/12/23 01:50:49;;;;;;;2.83;2.17;;;-4.70;99.90;;;;;;5049465;28;20226;-50
2021/12/23 01:53:16;;;;;;;4.80;2.50;;;-4.70;99.90;;;;;;5039621;28;20898;-50
2021/12/23 01:55:45;;;;;;;3.05;2.00;;;-4.60;99.90;;;;;;5033366;28;20450;-49
2021/12/23 01:58:14;;;;;;;2.40;1.50;;;-4.60;99.90;;;;;;5031107;28;20314;-51
2021/12/23 02:00:45;;;;;;;1.40;1.30;;;-4.60;99.90;;;;;;5030575;28;20548;-49
2021/12/23 02:03:13;;;;;;;1.67;1.10;;;-4.50;99.90;;;;;;5032051;28;20876;-48
2021/12/23 02:05:41;;;;;;;0.80;0.80;;;-4.60;99.90;;;;;;5030510;28;20841;-50
2021/12/23 02:08:09;;;;;;;1.33;0.90;;;-4.60;99.90;;;;;;5028104;28;20554;-51
2021/12/23 02:10:36;;;;;;;1.13;0.70;;;-4.60;99.90;;;;;;5034831;28;20457;-48
2021/12/23 02:13:04;;;;;;;4.70;2.03;;;-4.60;99.90;;;;;;5027268;28;20916;-51
2021/12/23 02:15:31;;;;;;;2.08;1.63;;;-4.70;99.90;;;;;;5032133;28;20448;-53
2021/12/23 02:17:59;;;;;;;2.70;2.10;;;-4.70;99.90;;;;;;5033343;28;20253;-50
2021/12/23 02:20:30;;;;;;;1.10;0.90;;;-4.60;99.90;;;;;;5027401;28;20876;-48
2021/12/23 02:22:57;;;;;;;1.50;1.30;;;-4.60;99.90;;;;;;5035649;28;20560;-51
2021/12/23 02:25:25;;;;;;;0.87;0.87;;;-4.60;99.90;;;;;;5031412;28;20573;-54
2021/12/23 02:27:54;;;;;;;1.30;1.20;;;-5.00;99.90;;;;;;5031033;28;20549;-55
2021/12/23 02:30:25;;;;;;;2.00;1.20;;;-4.90;99.90;;;;;;5027428;28;20539;-51
2021/12/23 02:32:53;;;;;;;3.07;0.90;;;-4.80;99.90;;;;;;5031623;28;20513;-51
2021/12/23 02:35:22;;;;;;;2.40;0.95;;;-4.70;99.90;;;;;;5032699;28;21106;-54
2021/12/23 02:37:50;;;;;;;1.03;0.93;;;-4.60;99.90;;;;;;5035866;28;20258;-51
2021/12/23 02:40:29;;;;;;;2.20;1.47;;;-4.60;99.90;;;;;;5032845;28;20982;-50
2021/12/23 02:42:57;;;;;;;1.00;0.90;;;-5.20;99.90;;;;;;5029023;28;20477;-53
2021/12/23 02:45:24;;;;;;;0.90;0.90;;;-5.30;99.90;;;;;;5033596;28;20461;-50
2021/12/23 02:47:52;;;;;;;1.50;1.02;;;-5.10;99.90;;;;;;5027168;28;20358;-49
2021/12/23 02:50:19;;;;;;;5.10;2.30;;;-5.10;99.90;;;;;;5025947;28;20234;-49
2021/12/23 02:52:47;;;;;;;2.03;1.60;;;-5.30;99.90;;;;;;5035038;28;20222;-48
2021/12/23 02:55:19;;;;;;;3.90;1.60;;;-5.20;99.90;;;;;;5028421;28;20299;-49
2021/12/23 02:57:46;;;;;;;1.80;1.70;;;-5.10;99.90;;;;;;5035325;28;20543;-52
2021/12/23 03:00:14;;;;;;;2.70;1.20;;;-5.10;99.90;;;;;;5036198;28;20908;-51
2021/12/23 03:02:42;;;;;;;2.88;1.33;;;-5.10;99.90;;;;;;5028411;28;20672;-51
2021/12/23 03:05:10;;;;;;;1.23;1.13;;;-5.00;99.90;;;;;;5031208;28;20208;-49
2021/12/23 03:07:37;;;;;;;1.25;1.13;;;-4.90;99.90;;;;;;5032181;28;20287;-49
2021/12/23 03:10:06;;;;;;;1.20;1.10;;;-4.80;99.90;;;;;;5027943;28;20234;-52
2021/12/23 03:12:35;;;;;;;1.77;1.35;;;-4.70;99.90;;;;;;5031313;28;20914;-50
2021/12/23 03:15:03;;;;;;;2.00;1.35;;;-4.70;99.90;;;;;;5027790;28;20286;-52
2021/12/23 03:17:31;;;;;;;0.70;0.70;;;-4.60;99.90;;;;;;5032558;28;20283;-52
2021/12/23 03:19:58;;;;;;;0.73;0.73;;;-4.60;99.90;;;;;;5031751;28;20634;-55
2021/12/23 03:22:25;;;;;;;1.00;0.90;;;-4.70;99.90;;;;;;5027225;28;20481;-51
2021/12/23 03:24:52;;;;;;;1.00;0.80;;;-4.70;99.90;;;;;;5033987;28;20933;-50
2021/12/23 03:27:19;;;;;;;1.53;0.90;;;-4.70;99.90;;;;;;5029403;28;20293;-53
2021/12/23 03:29:47;;;;;;;0.90;0.90;;;-4.70;99.90;;;;;;5024106;28;21691;-51
2021/12/23 03:32:14;;;;;;;1.20;0.83;;;-4.70;99.90;;;;;;5031065;28;20569;-48
2021/12/23 03:34:41;;;;;;;1.30;0.70;;;-4.70;99.90;;;;;;5025698;28;20451;-51
2021/12/23 03:37:08;;;;;;;0.80;0.75;;;-4.70;99.90;;;;;;5030089;28;20727;-51
2021/12/23 03:39:35;;;;;;;0.87;0.87;;;-4.70;99.90;;;;;;5033341;28;20811;-50
2021/12/23 03:42:02;;;;;;;2.20;0.68;;;-4.70;99.90;;;;;;5032760;28;20560;-52
2021/12/23 03:44:29;;;;;;;1.98;1.10;;;-5.10;99.90;;;;;;5036589;28;20297;-49
2021/12/23 03:46:58;;;;;;;1.03;0.90;;;-5.10;99.90;;;;;;5028804;28;20634;-53
2021/12/23 03:49:25;;;;;;;0.80;0.80;;;-5.00;99.90;;;;;;5027177;28;20548;-53
2021/12/23 03:51:51;;;;;;;1.10;1.00;;;-4.90;99.90;;;;;;5026847;28;20592;-49
2021/12/23 03:54:18;;;;;;;1.00;0.90;;;-4.80;99.90;;;;;;5030409;28;20488;-52
2021/12/23 03:56:46;;;;;;;2.40;1.20;;;-4.80;99.90;;;;;;5033078;28;20286;-54
2021/12/23 03:59:14;;;;;;;1.40;1.03;;;-4.70;99.90;;;;;;5035279;28;20578;-50
2021/12/23 04:01:41;;;;;;;2.05;0.85;;;-4.70;99.90;;;;;;5028614;28;20546;-48
2021/12/23 04:04:10;;;;;;;1.15;0.80;;;-4.70;99.90;;;;;;5033790;28;20312;-49
2021/12/23 04:06:37;;;;;;;2.70;1.17;;;-4.60;99.90;;;;;;5036066;28;21193;-49
2021/12/23 04:09:04;;;;;;;1.55;0.80;;;-4.90;99.90;;;;;;5031755;28;20519;-51
2021/12/23 04:11:31;;;;;;;2.30;1.00;;;-4.80;99.90;;;;;;5038002;28;20493;-49
2021/12/23 04:13:58;;;;;;;0.85;0.75;;;-4.80;99.90;;;;;;5035541;28;20527;-49
2021/12/23 04:16:25;;;;;;;1.50;1.00;;;-5.20;99.90;;;;;;5035140;28;20683;-49
2021/12/23 04:18:54;;;;;;;1.98;0.75;;;-5.40;99.90;;;;;;5035370;28;20636;-50
2021/12/23 04:21:22;;;;;;;1.00;1.00;;;-5.10;99.90;;;;;;5033293;28;20230;-54
2021/12/23 04:23:50;;;;;;;1.60;1.10;;;-5.00;99.90;;;;;;5032542;28;20463;-49
2021/12/23 04:26:17;;;;;;;1.40;1.30;;;-4.90;99.90;;;;;;5041795;28;20870;-50
2021/12/23 04:28:47;;;;;;;1.53;1.20;;;-4.70;99.90;;;;;;5031081;28;20285;-48
2021/12/23 04:31:16;;;;;;;2.13;2.03;;;-4.70;99.90;;;;;;5036417;28;20605;-52
2021/12/23 04:33:44;;;;;;;2.10;1.80;;;-4.70;99.90;;;;;;5036456;28;20584;-51
2021/12/23 04:36:11;;;;;;;2.70;1.97;;;-4.60;99.90;;;;;;5030660;28;20538;-48
2021/12/23 04:38:41;;;;;;;2.00;1.55;;;-4.70;99.90;;;;;;5032727;28;20519;-52
2021/12/23 04:41:08;;;;;;;1.10;1.00;;;-4.70;99.90;;;;;;5034894;28;20194;-48
2021/12/23 04:43:35;;;;;;;1.23;1.10;;;-4.80;99.90;;;;;;5031689;28;20550;-49
2021/12/23 04:46:02;;;;;;;1.37;1.27;;;-4.80;99.90;;;;;;5034156;28;20293;-48
2021/12/23 04:48:32;;;;;;;4.80;2.90;;;-5.00;99.90;;;;;;5028842;28;20882;-50
2021/12/23 04:51:00;;;;;;;1.20;1.10;;;-4.90;99.90;;;;;;5035123;28;20598;-48
2021/12/23 04:53:27;;;;;;;1.73;1.20;;;-4.90;99.90;;;;;;5035772;28;20553;-50
2021/12/23 04:55:56;;;;;;;1.23;1.10;;;-4.80;99.90;;;;;;5031496;28;20681;-49
2021/12/23 04:58:23;;;;;;;0.70;0.70;;;-4.80;99.90;;;;;;5031190;28;20528;-49
2021/12/23 05:00:51;;;;;;;1.70;0.90;;;-5.00;99.90;;;;;;5035390;28;20781;-51
2021/12/23 05:03:20;;;;;;;1.20;1.20;;;-4.90;99.90;;;;;;5030011;28;20468;-49
2021/12/23 05:05:47;;;;;;;0.85;0.82;;;-4.80;99.90;;;;;;5032961;28;20532;-49
2021/12/23 05:08:15;;;;;;;2.80;1.80;;;-4.70;99.90;;;;;;5033475;28;20292;-52
2021/12/23 05:10:42;;;;;;;2.53;1.97;;;-4.70;99.90;;;;;;5031424;28;20944;-48
2021/12/23 05:13:11;;;;;;;1.55;1.08;;;-4.70;99.90;;;;;;5034265;28;20547;-50
2021/12/23 05:15:39;;;;;;;1.80;1.20;;;-4.70;99.90;;;;;;5033761;28;20293;-49
2021/12/23 05:18:06;;;;;;;1.60;1.33;;;-4.70;99.90;;;;;;5038829;28;20538;-51
2021/12/23 05:20:33;;;;;;;1.40;1.20;;;-4.70;99.90;;;;;;5034173;28;20730;-50
2021/12/23 05:23:00;;;;;;;5.30;1.00;;;-4.70;99.90;;;;;;5031416;28;20318;-49
2021/12/23 05:25:28;;;;;;;1.23;1.13;;;-4.60;99.90;;;;;;5032034;28;20670;-51
2021/12/23 05:27:55;;;;;;;1.50;1.20;;;-4.60;99.90;;;;;;5037902;28;20300;-55
2021/12/23 05:30:25;;;;;;;1.58;1.05;;;-4.60;99.90;;;;;;5032590;28;20212;-52
2021/12/23 05:32:53;;;;;;;1.13;1.13;;;-4.60;99.90;;;;;;5029071;28;20530;-50
2021/12/23 05:35:21;;;;;;;1.63;1.20;;;-4.60;99.90;;;;;;5030207;28;20531;-49
2021/12/23 05:37:48;;;;;;;1.30;1.00;;;-4.50;99.90;;;;;;5029808;28;20879;-55
2021/12/23 05:40:17;;;;;;;2.50;1.80;;;-4.60;99.90;;;;;;5038703;28;20538;-52
2021/12/23 05:42:45;;;;;;;1.73;1.63;;;-4.60;99.90;;;;;;5028413;28;21690;-51
2021/12/23 05:45:12;;;;;;;2.43;2.10;;;-4.60;99.90;;;;;;5036365;28;21040;-55
2021/12/23 05:47:41;;;;;;;3.80;2.55;;;-4.60;99.90;;;;;;5027835;28;22010;-51
2021/12/23 05:50:09;;;;;;;2.50;2.30;;;-4.60;99.90;;;;;;5028855;28;20214;-50
2021/12/23 05:52:37;;;;;;;2.40;2.20;;;-4.60;99.90;;;;;;5033975;28;20355;-51
2021/12/23 05:55:06;;;;;;;3.50;3.20;;;-4.80;99.90;;;;;;5034450;28;20299;-55
2021/12/23 05:57:34;;;;;;;2.60;2.40;;;-4.70;99.90;;;;;;5033705;28;20537;-52
2021/12/23 06:00:01;;;;;;;2.20;2.00;;;-4.60;99.90;;;;;;5034057;28;20323;-49
2021/12/23 06:02:28;;;;;;;1.77;1.67;;;-4.60;99.90;;;;;;5027739;28;20571;-49
2021/12/23 06:04:57;;;;;;;2.10;1.90;;;-4.50;99.90;;;;;;5033555;28;20574;-50
2021/12/23 06:07:24;;;;;;;1.73;1.63;;;-4.60;99.90;;;;;;5029867;28;20875;-51
2021/12/23 06:09:51;;;;;;;1.88;1.48;;;-4.60;99.90;;;;;;5026058;28;20445;-49
2021/12/23 06:12:17;;;;;;;1.87;1.50;;;-4.60;99.90;;;;;;5034298;28;20321;-50
2021/12/23 06:14:44;;;;;;;3.30;2.20;;;-4.80;99.90;;;;;;5029056;28;20753;-51
2021/12/23 06:17:11;;;;;;;2.70;2.50;;;-4.70;99.90;;;;;;5032117;28;20202;-52
2021/12/23 06:19:38;;;;;;;2.70;2.55;;;-4.60;99.90;;;;;;5037655;28;20575;-52
2021/12/23 06:22:07;;;;;;;3.23;2.90;;;-4.60;99.90;;;;;;5027864;28;20353;-55
2021/12/23 06:24:34;;;;;;;5.55;2.42;;;-4.60;99.90;;;;;;5027932;28;20451;-49
2021/12/23 06:27:00;;;;;;;3.07;2.70;;;-4.90;99.90;;;;;;5028566;28;20206;-51
2021/12/23 06:29:27;;;;;;;2.90;2.70;;;-5.50;99.90;;;;;;5030792;28;20537;-51
2021/12/23 06:31:54;;;;;;;6.60;4.57;;;-5.30;99.90;;;;;;5031756;28;20555;-50
2021/12/23 06:34:21;;;;;;;2.58;1.92;;;-5.40;99.90;;;;;;5030646;28;21018;-51
2021/12/23 06:36:48;;;;;;;3.70;2.30;;;-5.90;99.90;;;;;;5027125;28;20294;-54
2021/12/23 06:39:17;;;;;;;2.50;1.70;;;-5.80;99.90;;;;;;5037599;28;20225;-51
2021/12/23 06:41:43;;;;;;;2.50;2.30;;;-5.50;99.90;;;;;;5030370;28;21013;-49
2021/12/23 06:44:10;;;;;;;2.60;2.40;;;-5.40;99.90;;;;;;5037915;28;20305;-53
2021/12/23 06:46:37;;;;;;;3.83;3.47;;;-5.20;99.90;;;;;;5029951;28;20575;-51
2021/12/23 06:49:04;;;;;;;3.15;2.60;;;-5.10;99.90;;;;;;5030131;28;20976;-52
2021/12/23 06:51:31;;;;;;;3.90;3.60;;;-5.00;99.90;;;;;;5033292;28;20297;-51
2021/12/23 06:54:01;;;;;;;3.85;3.25;;;-4.90;99.90;;;;;;5037793;28;20287;-52
2021/12/23 06:56:29;;;;;;;5.03;4.63;;;-4.90;99.90;;;;;;5027191;28;20202;-49
2021/12/23 06:58:56;;;;;;;2.80;2.60;;;-4.80;99.90;;;;;;5033845;28;21111;-51
2021/12/23 07:01:23;;;;;;;2.83;2.53;;;-4.80;99.90;;;;;;5030300;28;20317;-51
2021/12/23 07:04:06;;;;;;;3.30;3.00;;;-4.80;99.90;;;;;;5045818;28;20535;-52
2021/12/23 07:06:35;;;;;;;2.70;2.50;;;-4.80;99.90;;;;;;5048369;28;20678;-53
2021/12/23 07:09:04;;;;;;;3.43;2.73;;;-4.80;99.90;;;;;;5048009;28;20208;-52
2021/12/23 07:11:33;;;;;;;4.85;4.18;;;-4.80;99.90;;;;;;5047676;28;20451;-51
2021/12/23 07:14:00;;;;;;;4.20;2.63;;;-4.80;99.90;;;;;;5046515;28;20307;-51
2021/12/23 07:16:27;;;;;;;2.50;2.30;;;-4.90;99.90;;;;;;5045267;28;20892;-52
2021/12/23 07:18:54;;;;;;;3.40;2.58;;;-4.90;99.90;;;;;;5046890;28;20242;-52
2021/12/23 07:21:22;;;;;;;4.15;3.80;;;-4.80;99.90;;;;;;5044783;28;20779;-52
2021/12/23 07:23:49;;;;;;;4.97;4.57;;;-4.80;99.90;;;;;;5047023;28;20762;-53
2021/12/23 07:26:16;;;;;;;3.47;3.17;;;-4.80;99.90;;;;;;5042537;28;20841;-51
2021/12/23 07:28:45;;;;;;;2.35;2.15;;;-4.80;99.90;;;;;;5046255;28;20453;-51
2021/12/23 07:31:12;;;;;;;6.40;3.63;;;-4.90;99.90;;;;;;5044739;28;20646;-54
2021/12/23 07:33:39;;;;;;;4.32;3.47;;;-5.00;99.90;;;;;;5047454;28;20305;-53
2021/12/23 07:36:07;;;;;;;3.80;3.50;;;-4.90;99.90;;;;;;5047141;28;20235;-51
2021/12/23 07:38:34;;;;;;;13.38;6.00;;;-4.90;99.90;;;;;;5052051;28;20532;-51
2021/12/23 07:41:02;;;;;;;9.90;8.10;;;-4.80;99.90;;;;;;5055449;28;20473;-52
2021/12/23 07:46:16;;;;;;;7.20;4.90;;;-5.00;99.90;;;;;;5049060;28;20203;-53
2021/12/23 07:48:43;;;;;;;11.05;5.88;;;-4.90;99.90;;;;;;5051092;28;20548;-52
2021/12/23 07:51:10;;;;;;;4.28;2.83;;;-5.00;99.90;;;;;;5051481;28;20245;-53
2021/12/23 07:53:37;;;;;;;3.07;2.27;;;-5.00;99.90;;;;;;5051947;28;20309;-52
2021/12/23 07:56:05;;;;;;;3.25;2.85;;;-5.10;99.90;;;;;;5045491;28;20479;-51
2021/12/23 07:58:32;;;;;;;4.28;3.15;;;-5.00;99.90;;;;;;5049843;28;20245;-52
2021/12/23 08:00:59;;;;;;;4.13;2.90;;;-5.20;99.90;;;;;;5051605;28;20302;-51
2021/12/23 08:03:27;;;;;;;3.08;2.78;;;-5.10;99.90;;;;;;5050230;28;20552;-52
2021/12/23 08:05:54;;;;;;;1.83;1.73;;;-5.10;99.90;;;;;;5051222;28;20290;-54
2021/12/23 08:08:21;;;;;;;2.20;1.98;;;-5.40;99.90;;;;;;5051728;28;20522;-53
2021/12/23 08:10:50;;;;;;;1.90;1.80;;;-5.30;99.90;;;;;;5049622;28;20205;-51
2021/12/23 08:13:17;;;;;;;3.00;1.98;;;-5.20;99.90;;;;;;5053430;28;20467;-52
2021/12/23 08:15:44;;;;;;;1.90;1.47;;;-5.00;99.90;;;;;;5051087;28;20633;-54
2021/12/23 08:18:11;;;;;;;1.75;1.60;;;-4.90;99.90;;;;;;5051365;28;20778;-52
2021/12/23 08:20:39;;;;;;;2.40;2.17;;;-4.90;99.90;;;;;;5051932;28;20257;-53
2021/12/23 08:23:06;;;;;;;3.37;2.57;;;-4.80;99.90;;;;;;5051071;28;20302;-52
2021/12/23 08:25:34;;;;;;;3.80;2.30;;;-4.80;99.90;;;;;;5050691;28;20539;-51
2021/12/23 08:28:01;;;;;;;2.40;1.30;;;-4.70;99.90;;;;;;5051250;28;20226;-54
2021/12/23 08:30:28;;;;;;;4.22;2.63;;;-4.80;99.90;;;;;;5048461;28;20238;-52
2021/12/23 08:32:55;;;;;;;3.17;1.97;;;-4.80;99.90;;;;;;5051139;28;20566;-52
2021/12/23 08:35:22;;;;;;;1.65;1.55;;;-4.70;99.90;;;;;;5051240;28;20528;-52
2021/12/23 08:37:51;;;;;;;3.08;2.50;;;-4.60;99.90;;;;;;5048933;28;20287;-52
2021/12/23 08:40:21;;;;;;;3.30;2.47;;;-4.50;99.90;;;;;;5053131;28;20293;-52
2021/12/23 08:42:49;;;;;;;3.33;3.03;;;-4.40;99.90;;;;;;5050645;28;20993;-52
2021/12/23 08:45:17;;;;;;;3.73;2.70;;;-4.50;99.90;;;;;;5050499;28;20536;-53
2021/12/23 08:47:46;;;;;;;5.37;3.37;;;-4.80;99.90;;;;;;5051795;28;20529;-53
2021/12/23 08:50:14;;;;;;;4.32;2.20;;;-4.70;99.90;;;;;;5049585;28;20909;-51
2021/12/23 08:52:41;;;;;;;4.93;4.43;;;-4.60;99.90;;;;;;5050783;28;20232;-53
2021/12/23 08:55:11;;;;;;;10.50;6.43;;;-4.50;99.90;;;;;;5050348;28;20288;-52
2021/12/23 08:57:38;;;;;;;23.60;15.40;;;-4.40;99.90;;;;;;5048910;28;20243;-51
2021/12/23 09:00:08;;;;;;;7.63;4.55;;;-4.40;99.90;;;;;;5050459;28;20523;-52
2021/12/23 09:02:35;;;;;;;4.25;3.20;;;-4.40;99.90;;;;;;5047456;28;20302;-52
2021/12/23 09:05:02;;;;;;;4.10;3.53;;;-4.40;99.90;;;;;;5050865;28;20313;-50
2021/12/23 09:07:29;;;;;;;4.97;4.18;;;-4.50;99.90;;;;;;5050187;28;20264;-54
2021/12/23 09:09:56;;;;;;;9.17;7.30;;;-4.70;99.90;;;;;;5047832;28;20230;-51
2021/12/23 09:12:25;;;;;;;7.37;5.43;;;-4.60;99.90;;;;;;5049741;28;21033;-53
2021/12/23 09:14:52;;;;;;;7.17;6.47;;;-4.50;99.90;;;;;;5051354;28;20498;-51
2021/12/23 09:17:20;;;;;;;22.60;18.50;;;-4.40;99.90;;;;;;5047147;28;20445;-52
2021/12/23 09:19:47;;;;;;;49.40;32.20;;;-4.40;99.90;;;;;;5049587;28;20482;-52
2021/12/23 09:22:14;;;;;;;17.38;12.40;;;-4.80;99.90;;;;;;5045748;28;21036;-54
2021/12/23 09:24:45;;;;;;;19.40;11.50;;;-5.20;99.90;;;;;;5049539;28;20652;-52
2021/12/23 09:27:23;;;;;;;8.88;6.22;;;-5.20;99.90;;;;;;5051643;28;20213;-52
2021/12/23 09:32:52;;;;;;;11.00;7.50;;;-4.90;99.90;;;;;;5049240;28;20367;-52
2021/12/23 09:35:21;;;;;;;10.32;7.57;;;-4.70;99.90;;;;;;5051930;28;20499;-52
2021/12/23 09:37:49;;;;;;;10.17;7.57;;;-4.50;99.90;;;;;;5051240;28;20241;-51
2021/12/23 09:40:16;;;;;;;10.63;7.50;;;-4.40;99.90;;;;;;5050331;28;21048;-53
2021/12/23 09:42:46;;;;;;;8.18;6.72;;;-4.30;99.90;;;;;;5050742;28;20487;-55
2021/12/23 09:45:18;;;;;;;11.20;9.97;;;-4.20;99.90;;;;;;5049172;28;20912;-55
2021/12/23 09:47:46;;;;;;;12.10;10.90;;;-4.10;99.90;;;;;;5046905;28;20456;-52
2021/12/23 09:50:16;;;;;;;8.23;7.40;;;-4.10;99.90;;;;;;5051270;28;20448;-53
2021/12/23 09:52:45;;;;;;;6.43;4.80;;;-4.20;99.90;;;;;;5045571;28;20556;-52
2021/12/23 09:55:14;;;;;;;9.60;7.00;;;-4.40;99.90;;;;;;5045835;28;20499;-51
2021/12/23 09:57:41;;;;;;;6.63;5.93;;;-4.30;99.90;;;;;;5044300;28;20522;-52
2021/12/23 10:00:11;;;;;;;10.93;7.20;;;-4.10;99.90;;;;;;5047024;28;20524;-54
2021/12/23 10:02:42;;;;;;;12.37;9.90;;;-4.00;99.90;;;;;;5044286;28;20554;-52
2021/12/23 10:05:11;;;;;;;11.93;9.03;;;-3.90;99.90;;;;;;5044925;28;20452;-54
2021/12/23 10:07:40;;;;;;;11.63;8.67;;;-3.80;99.90;;;;;;5046498;28;20529;-52
2021/12/23 10:10:13;;;;;;;42.10;36.53;;;-3.70;99.90;;;;;;5050076;28;20446;-51
2021/12/23 10:32:23;;;;;;;5.80;4.90;;;1.50;99.90;;;;;;5033818;28;20439;-55
2021/12/23 10:37:35;;;;;;;8.43;7.30;;;0.70;99.90;;;;;;5047109;28;20452;-54
2021/12/23 10:40:12;;;;;;;14.60;11.40;;;0.30;99.90;;;;;;5052422;28;20528;-53
2021/12/23 10:42:48;;;;;;;23.90;20.27;;;-0.40;99.90;;;;;;5046315;28;20556;-57
2021/12/23 10:45:16;;;;;;;14.57;13.23;;;-1.30;99.90;;;;;;5045836;28;20469;-55
2021/12/23 10:47:53;;;;;;;15.50;12.23;;;-1.20;99.90;;;;;;5047616;28;20821;-55
2021/12/23 10:50:30;;;;;;;14.80;9.67;;;-1.20;99.90;;;;;;5048131;28;20437;-52
2021/12/23 10:53:04;;;;;;;7.33;6.47;;;-1.20;99.90;;;;;;5048321;28;20467;-55
2021/12/23 10:58:17;;;;;;;19.67;15.20;;;-1.50;99.90;;;;;;5043203;28;20432;-52
2021/12/23 11:00:49;;;;;;;12.10;10.93;;;-2.00;99.90;;;;;;5047358;28;20996;-52
2021/12/23 11:03:21;;;;;;;9.77;7.70;;;-1.90;99.90;;;;;;5047843;28;20473;-52
2021/12/23 11:06:02;;;;;;;10.07;7.77;;;-1.80;99.90;;;;;;5047949;28;20437;-54
2021/12/23 11:08:37;;;;;;;10.07;9.07;;;-1.70;99.90;;;;;;5040336;28;20459;-52
2021/12/23 11:32:06;;;;;;;10.60;8.97;;;-2.10;99.90;;;;;;5009061;28;20429;-52
2021/12/23 11:37:05;;;;;;;11.73;8.27;;;-1.90;99.90;;;;;;5045750;28;20442;-52
2021/12/23 11:39:47;;;;;;;10.67;9.67;;;-1.80;99.90;;;;;;5045200;28;20525;-53
2021/12/23 11:42:23;;;;;;;10.40;6.53;;;-1.70;99.90;;;;;;5044012;28;20999;-52
2021/12/23 11:44:50;;;;;;;8.40;6.40;;;-1.60;99.90;;;;;;5044731;28;20476;-51
2021/12/23 11:47:18;;;;;;;7.23;5.77;;;-1.60;99.90;;;;;;5043909;28;20884;-52
2021/12/23 11:49:46;;;;;;;8.00;7.20;;;-1.50;99.90;;;;;;5044697;28;20473;-55
2021/12/23 11:52:16;;;;;;;9.03;7.60;;;-1.50;99.90;;;;;;5046171;28;20468;-54
2021/12/23 11:54:47;;;;;;;19.13;10.43;;;-1.50;99.90;;;;;;5045987;28;20507;-55
2021/12/23 11:57:17;;;;;;;19.10;11.77;;;-1.50;99.90;;;;;;5046225;28;20908;-54
2021/12/23 11:59:57;;;;;;;16.60;13.43;;;-1.40;99.90;;;;;;5048690;28;20441;-52
2021/12/23 12:02:25;;;;;;;22.57;13.90;;;-1.40;99.90;;;;;;5047147;28;20570;-52
2021/12/23 12:05:00;;;;;;;16.73;10.60;;;-1.40;99.90;;;;;;5045258;28;20540;-52
2021/12/23 12:07:28;;;;;;;11.53;9.30;;;-1.30;99.90;;;;;;5048006;28;20536;-51
2021/12/23 12:09:58;;;;;;;12.90;9.50;;;-1.30;99.90;;;;;;5046536;28;20529;-52
2021/12/23 12:12:26;;;;;;;14.10;9.60;;;-1.30;99.90;;;;;;5046796;28;20465;-54
2021/12/23 12:14:55;;;;;;;19.27;10.50;;;-1.20;99.90;;;;;;5047260;28;20490;-53
2021/12/23 12:17:38;;;;;;;22.97;8.97;;;-1.20;99.90;;;;;;5049770;28;20441;-54
2021/12/23 12:20:21;;;;;;;15.20;9.67;;;-1.20;99.90;;;;;;5045062;28;20489;-52
2021/12/23 12:22:51;;;;;;;13.07;10.30;;;-1.10;99.90;;;;;;5049359;28;20896;-52
2021/12/23 12:25:58;;;;;;;16.83;10.90;;;-1.10;99.90;;;;;;5050091;28;20465;-52
2021/12/23 12:28:37;;;;;;;15.20;10.17;;;-1.00;99.90;;;;;;5049404;28;20529;-54
2021/12/23 12:31:07;;;;;;;13.90;9.70;;;-1.00;99.90;;;;;;5049543;28;20535;-52
2021/12/23 12:33:40;;;;;;;9.30;8.37;;;-1.00;99.90;;;;;;5046833;28;20487;-52
2021/12/23 12:36:10;;;;;;;7.17;6.43;;;-1.00;99.90;;;;;;5047326;28;20473;-52
2021/12/23 12:38:39;;;;;;;8.63;7.30;;;-0.90;99.90;;;;;;5051540;28;20446;-51
2021/12/23 12:41:11;;;;;;;13.20;8.40;;;-0.90;99.90;;;;;;5053485;28;20591;-51
2021/12/23 12:43:56;;;;;;;11.53;8.60;;;-0.80;99.90;;;;;;5050251;28;20462;-56
2021/12/23 12:46:55;;;;;;;14.97;11.17;;;-0.80;99.90;;;;;;5050879;28;20865;-51
2021/12/23 12:49:26;;;;;;;13.37;9.00;;;-0.70;99.90;;;;;;5051191;28;20440;-53
2021/12/23 12:51:55;;;;;;;15.43;8.50;;;-0.70;99.90;;;;;;5048757;28;20538;-51
2021/12/23 12:54:30;;;;;;;8.97;6.87;;;-0.70;99.90;;;;;;5050826;28;20526;-51
2021/12/23 12:57:01;;;;;;;9.10;6.90;;;-0.60;99.90;;;;;;5047844;28;20444;-54
2021/12/23 12:59:30;;;;;;;17.30;7.87;;;-0.60;99.90;;;;;;5048639;28;20479;-52
2021/12/23 13:02:30;;;;;;;10.63;7.27;;;-0.50;99.90;;;;;;5051866;28;20561;-55
2021/12/23 13:05:08;;;;;;;9.00;7.50;;;-0.60;99.90;;;;;;5049171;28;20450;-51
2021/12/23 13:07:37;;;;;;;11.27;7.10;;;-0.60;99.90;;;;;;5049405;28;20520;-51
2021/12/23 13:10:11;;;;;;;10.07;7.20;;;-0.50;99.90;;;;;;5054439;28;20456;-54
2021/12/23 13:12:49;;;;;;;8.00;7.13;;;-0.60;99.90;;;;;;5040119;28;20464;-54
2021/12/23 13:15:20;;;;;;;11.93;7.40;;;-0.60;99.90;;;;;;5047420;28;20536;-52
2021/12/23 13:17:55;;;;;;;7.37;6.63;;;-0.50;99.90;;;;;;5049462;28;20817;-54
2021/12/23 13:20:39;;;;;;;11.13;7.07;;;-0.50;99.90;;;;;;5048421;28;20997;-51
2021/12/23 13:23:11;;;;;;;10.43;7.80;;;-0.50;99.90;;;;;;5048768;28;20493;-52
2021/12/23 13:25:47;;;;;;;11.20;7.80;;;-0.50;99.90;;;;;;5051438;28;20449;-51
2021/12/23 13:28:22;;;;;;;22.93;15.90;;;-0.50;99.90;;;;;;5049239;28;20479;-52
2021/12/23 13:30:49;;;;;;;18.00;11.23;;;-0.50;99.90;;;;;;5046354;28;20866;-51
2021/12/23 13:33:16;;;;;;;14.27;8.40;;;-0.60;99.90;;;;;;5049326;28;20558;-51
2021/12/23 13:35:43;;;;;;;10.10;7.30;;;-0.60;99.90;;;;;;5048659;28;20541;-51
2021/12/23 13:38:10;;;;;;;8.73;6.10;;;-0.50;99.90;;;;;;5047568;28;20453;-51
2021/12/23 13:40:39;;;;;;;11.20;8.00;;;-0.50;99.90;;;;;;5050514;28;20463;-51
2021/12/23 13:43:06;;;;;;;12.03;9.30;;;-0.40;99.90;;;;;;5048928;28;20491;-51
2021/12/23 13:45:34;;;;;;;12.43;8.10;;;-0.40;99.90;;;;;;5049817;28;20545;-51
2021/12/23 13:48:01;;;;;;;12.60;6.13;;;-0.30;99.90;;;;;;5049956;28;20525;-50
2021/12/23 13:50:28;;;;;;;7.77;6.03;;;-0.30;99.90;;;;;;5048547;28;20482;-53